Time;durP1;ratioP1;P1;durP2;ratioP2;P2;SDS_P1;SDS_P2;PMS_P1;PMS_P2;Temp;Humidity;BMP_temperature;BMP_pressure;BME280_temperature;BME280_humidity;BME280_pressure;Samples;Min_cycle;Max_cycle;Signal;HPM_P1;HPM_P2
2021/06/15 00:01:32;;;;;;;1.17;0.80;;;27.90;42.30;;;;;;5044265;28;20528;-60
2021/06/15 00:03:57;;;;;;;1.45;1.00;;;27.80;42.30;;;;;;5046466;28;20037;-61
2021/06/15 00:06:23;;;;;;;1.50;1.00;;;27.80;42.30;;;;;;5047658;28;20116;-60
2021/06/15 00:08:48;;;;;;;1.50;0.80;;;27.70;42.20;;;;;;5050588;28;20583;-60
2021/06/15 00:11:14;;;;;;;1.17;0.90;;;27.80;42.30;;;;;;5050343;28;20044;-60
2021/06/15 00:13:40;;;;;;;1.38;0.93;;;27.70;42.30;;;;;;5061292;28;20041;-61
2021/06/15 00:16:05;;;;;;;1.90;0.90;;;27.70;42.30;;;;;;5067115;28;20028;-61
2021/06/15 00:18:33;;;;;;;2.20;1.13;;;27.70;42.40;;;;;;5058877;28;20032;-60
2021/06/15 00:20:58;;;;;;;1.73;1.10;;;27.70;42.40;;;;;;5058268;28;20043;-61
2021/06/15 00:23:24;;;;;;;1.60;1.13;;;27.70;42.40;;;;;;5064110;28;20028;-60
2021/06/15 00:25:50;;;;;;;1.33;0.90;;;27.60;42.40;;;;;;5066074;28;20359;-60
2021/06/15 00:28:15;;;;;;;1.15;0.80;;;27.60;42.40;;;;;;5047740;28;20095;-61
2021/06/15 00:30:41;;;;;;;1.00;0.90;;;27.60;42.40;;;;;;5054923;28;20364;-61
2021/06/15 00:33:08;;;;;;;1.42;0.90;;;27.60;42.50;;;;;;5054666;28;20487;-60
2021/06/15 00:35:34;;;;;;;1.15;0.80;;;27.50;42.40;;;;;;5066683;28;20039;-59
2021/06/15 00:38:00;;;;;;;1.70;0.90;;;27.50;42.40;;;;;;5068006;28;20130;-60
2021/06/15 00:40:26;;;;;;;1.33;0.95;;;27.50;42.50;;;;;;5064345;28;20466;-60
2021/06/15 00:42:52;;;;;;;1.75;1.10;;;27.50;42.50;;;;;;5046959;28;20047;-61
2021/06/15 00:45:23;;;;;;;0.93;0.80;;;27.40;42.50;;;;;;5048224;28;20159;-60
2021/06/15 00:47:49;;;;;;;1.10;0.80;;;27.40;42.50;;;;;;5067094;28;20052;-60
2021/06/15 00:50:16;;;;;;;2.08;1.08;;;27.40;42.50;;;;;;5066439;28;20113;-60
2021/06/15 00:52:42;;;;;;;1.70;0.93;;;27.40;42.50;;;;;;5057930;28;20044;-61
2021/06/15 00:55:08;;;;;;;2.35;0.90;;;27.40;42.50;;;;;;5047259;28;20024;-60
2021/06/15 00:57:34;;;;;;;1.30;0.90;;;27.30;42.50;;;;;;5066637;28;20032;-60
2021/06/15 01:00:00;;;;;;;1.30;0.90;;;27.30;42.60;;;;;;5064222;28;20561;-59
2021/06/15 01:02:28;;;;;;;1.73;1.00;;;27.30;42.60;;;;;;5045274;28;20377;-60
2021/06/15 01:05:00;;;;;;;2.03;1.00;;;27.30;42.60;;;;;;5060126;28;20047;-60
2021/06/15 01:07:46;;;;;;;1.10;0.80;;;27.30;42.60;;;;;;5066150;28;20024;-59
2021/06/15 01:10:31;;;;;;;1.45;0.90;;;27.20;42.50;;;;;;5071801;28;20020;-60
2021/06/15 01:13:22;;;;;;;1.30;1.00;;;27.20;42.60;;;;;;5057258;28;20036;-59
2021/06/15 01:16:09;;;;;;;1.42;0.90;;;27.20;42.60;;;;;;5054603;28;20060;-60
2021/06/15 01:18:41;;;;;;;1.10;0.90;;;27.20;42.60;;;;;;5070695;28;20046;-60
2021/06/15 01:21:10;;;;;;;1.27;0.80;;;27.20;42.60;;;;;;5070335;28;20423;-61
2021/06/15 01:23:48;;;;;;;1.67;0.88;;;27.20;42.70;;;;;;5061747;28;20078;-59
2021/06/15 01:26:41;;;;;;;1.05;0.80;;;27.20;42.70;;;;;;5060639;28;20032;-60
2021/06/15 01:29:09;;;;;;;1.40;0.85;;;27.10;42.60;;;;;;5054056;28;20203;-60
2021/06/15 01:31:37;;;;;;;1.55;0.95;;;27.10;42.70;;;;;;5065281;28;20060;-60
2021/06/15 01:34:15;;;;;;;1.00;0.88;;;27.00;42.70;;;;;;5063951;28;20036;-61
2021/06/15 01:36:55;;;;;;;1.48;0.80;;;27.00;42.60;;;;;;5071681;28;20119;-60
2021/06/15 01:39:25;;;;;;;1.00;0.90;;;27.00;42.70;;;;;;5069301;28;20036;-61
2021/06/15 01:42:02;;;;;;;0.95;0.77;;;27.00;42.70;;;;;;5072970;28;20047;-61
2021/06/15 01:44:30;;;;;;;1.40;0.90;;;27.00;42.80;;;;;;5062051;28;20033;-59
2021/06/15 01:47:11;;;;;;;1.70;0.80;;;27.00;42.80;;;;;;5072853;28;20047;-59
2021/06/15 01:49:59;;;;;;;1.50;0.90;;;27.00;42.80;;;;;;5070322;28;20047;-60
2021/06/15 01:52:30;;;;;;;1.52;0.90;;;27.00;42.80;;;;;;5069075;28;20089;-61
2021/06/15 01:54:58;;;;;;;2.00;0.90;;;27.00;42.80;;;;;;5052968;28;20033;-59
2021/06/15 01:57:24;;;;;;;1.40;0.90;;;26.90;42.70;;;;;;5070107;28;20158;-60
2021/06/15 01:59:53;;;;;;;1.67;1.00;;;26.90;42.80;;;;;;5063494;28;20106;-61
2021/06/15 02:02:19;;;;;;;1.35;0.90;;;26.90;42.80;;;;;;5059709;28;20071;-60
2021/06/15 02:04:48;;;;;;;1.17;0.80;;;26.90;42.80;;;;;;5071029;28;20057;-61
2021/06/15 02:07:16;;;;;;;1.83;1.00;;;26.90;42.80;;;;;;5071274;28;20374;-60
2021/06/15 02:09:46;;;;;;;1.90;1.00;;;26.80;42.70;;;;;;5054152;28;20033;-61
2021/06/15 02:12:14;;;;;;;1.63;1.23;;;26.90;42.80;;;;;;5057733;28;20191;-60
2021/06/15 02:14:40;;;;;;;1.55;0.98;;;26.90;43.10;;;;;;5063684;28;20033;-59
2021/06/15 02:17:08;;;;;;;1.45;1.00;;;26.80;42.80;;;;;;5049691;28;20059;-60
2021/06/15 02:19:35;;;;;;;1.65;1.00;;;26.80;42.80;;;;;;5049631;28;20082;-61
2021/06/15 02:22:07;;;;;;;1.92;1.08;;;26.80;42.80;;;;;;5051675;28;20035;-59
2021/06/15 02:24:37;;;;;;;1.70;1.05;;;26.80;42.80;;;;;;5061324;28;20025;-60
2021/06/15 02:27:03;;;;;;;1.00;0.80;;;26.80;42.90;;;;;;5057505;28;20112;-60
2021/06/15 02:29:29;;;;;;;1.20;0.90;;;26.70;42.80;;;;;;5058572;28;20025;-60
2021/06/15 02:31:59;;;;;;;1.58;0.98;;;26.70;42.80;;;;;;5053995;28;20561;-61
2021/06/15 02:34:28;;;;;;;1.02;0.80;;;26.70;42.80;;;;;;5062680;28;20020;-59
2021/06/15 02:36:54;;;;;;;1.00;0.90;;;26.70;42.90;;;;;;5060515;28;20037;-61
2021/06/15 02:39:24;;;;;;;1.50;0.90;;;26.70;42.90;;;;;;5049571;28;20452;-60
2021/06/15 02:41:51;;;;;;;;;;;26.70;42.90;;;;;;5066721;28;20484;-59
2021/06/15 02:44:20;;;;;;;1.33;1.00;;;26.70;42.90;;;;;;5050911;28;19912;-60
2021/06/15 02:46:53;;;;;;;1.23;0.90;;;26.60;42.80;;;;;;5049169;28;20025;-59
2021/06/15 02:49:21;;;;;;;1.23;0.90;;;26.60;42.80;;;;;;5069346;28;20102;-60
2021/06/15 02:52:12;;;;;;;1.70;1.10;;;26.60;42.90;;;;;;5055009;28;20029;-61
2021/06/15 02:54:45;;;;;;;1.02;0.80;;;26.60;42.90;;;;;;5040249;28;20044;-60
2021/06/15 02:57:13;;;;;;;1.00;0.80;;;26.60;42.90;;;;;;5056438;28;20056;-60
2021/06/15 02:59:40;;;;;;;0.90;0.80;;;26.60;42.90;;;;;;5064608;28;20048;-60
2021/06/15 03:02:05;;;;;;;0.93;0.82;;;26.60;43.00;;;;;;5066159;28;20055;-60
2021/06/15 03:04:31;;;;;;;1.35;0.90;;;26.60;43.00;;;;;;5067806;28;20105;-60
2021/06/15 03:06:56;;;;;;;1.65;0.90;;;26.50;42.90;;;;;;5067624;28;20093;-61
2021/06/15 03:09:23;;;;;;;1.23;0.90;;;26.50;43.00;;;;;;5067992;28;20086;-60
2021/06/15 03:12:00;;;;;;;1.70;0.93;;;26.50;43.00;;;;;;5055138;28;20036;-60
2021/06/15 03:14:29;;;;;;;1.60;1.00;;;26.50;43.00;;;;;;5062583;28;20115;-60
2021/06/15 03:16:59;;;;;;;1.77;1.00;;;26.50;43.00;;;;;;5067125;28;20024;-62
2021/06/15 03:19:46;;;;;;;2.03;0.93;;;26.50;43.00;;;;;;5068394;28;20064;-61
2021/06/15 03:22:20;;;;;;;1.35;0.88;;;26.50;43.10;;;;;;5059666;28;20039;-59
2021/06/15 03:24:52;;;;;;;1.35;1.00;;;26.50;43.10;;;;;;5062561;28;20032;-60
2021/06/15 03:27:48;;;;;;;1.13;0.90;;;26.40;43.00;;;;;;5061802;28;20020;-60
2021/06/15 03:30:15;;;;;;;1.10;0.85;;;26.40;43.00;;;;;;5058955;28;20083;-61
2021/06/15 03:32:54;;;;;;;1.40;0.93;;;26.40;43.00;;;;;;5051983;28;20025;-61
2021/06/15 03:35:21;;;;;;;1.38;0.98;;;26.40;43.00;;;;;;5052080;28;20048;-61
2021/06/15 03:37:57;;;;;;;1.83;1.00;;;26.40;43.10;;;;;;5049151;28;20049;-60
2021/06/15 03:40:25;;;;;;;0.88;0.80;;;26.30;43.00;;;;;;5056370;28;20407;-60
2021/06/15 03:42:51;;;;;;;1.30;0.90;;;26.40;43.10;;;;;;5066251;28;20028;-61
2021/06/15 03:45:18;;;;;;;1.50;0.90;;;26.30;43.00;;;;;;5060500;28;20345;-62
2021/06/15 03:47:48;;;;;;;1.40;0.93;;;26.40;43.10;;;;;;5055707;28;20099;-61
2021/06/15 03:50:16;;;;;;;1.40;0.90;;;26.30;43.10;;;;;;5062738;28;20036;-62
2021/06/15 03:52:42;;;;;;;2.10;1.25;;;26.30;41.60;;;;;;5056651;28;20055;-61
2021/06/15 03:55:12;;;;;;;2.10;1.10;;;26.20;40.60;;;;;;5063747;28;20036;-61
2021/06/15 03:57:41;;;;;;;;;;;26.10;39.00;;;;;;5060768;28;20034;-61
2021/06/15 04:00:09;;;;;;;3.35;1.45;;;26.00;39.10;;;;;;5061719;28;19905;-61
2021/06/15 04:02:38;;;;;;;3.00;1.40;;;25.90;38.60;;;;;;5053646;28;20066;-61
2021/06/15 04:05:04;;;;;;;;;;;25.90;38.30;;;;;;5061185;28;20032;-60
2021/06/15 04:07:32;;;;;;;2.22;1.40;;;25.80;37.90;;;;;;5053907;28;19928;-62
2021/06/15 04:09:59;;;;;;;2.80;1.33;;;25.80;38.10;;;;;;5065580;28;20517;-60
2021/06/15 04:12:25;;;;;;;2.42;1.65;;;25.70;38.00;;;;;;5063075;28;20100;-61
2021/06/15 04:14:52;;;;;;;2.47;1.20;;;25.70;38.10;;;;;;5060247;28;20025;-60
2021/06/15 04:17:24;;;;;;;2.05;1.30;;;25.60;38.20;;;;;;5051091;28;20131;-60
2021/06/15 04:19:54;;;;;;;1.63;1.20;;;25.60;38.50;;;;;;5061231;28;20147;-59
2021/06/15 04:22:21;;;;;;;2.25;1.30;;;25.60;39.10;;;;;;5047724;28;20116;-60
2021/06/15 04:24:51;;;;;;;2.30;1.40;;;25.50;39.00;;;;;;5055259;28;20035;-61
2021/06/15 04:27:20;;;;;;;2.97;1.60;;;25.50;39.00;;;;;;5058580;28;20012;-59
2021/06/15 04:29:47;;;;;;;3.72;1.92;;;25.40;38.90;;;;;;5065448;28;20498;-59
2021/06/15 04:32:17;;;;;;;2.45;1.40;;;25.40;38.70;;;;;;5061856;28;20124;-61
2021/06/15 04:34:48;;;;;;;4.40;1.50;;;25.40;38.80;;;;;;5048204;28;20392;-60
2021/06/15 04:37:16;;;;;;;2.60;1.52;;;25.30;38.70;;;;;;5053204;28;20423;-59
2021/06/15 04:39:57;;;;;;;3.00;1.80;;;25.30;38.80;;;;;;5060575;28;20152;-59
2021/06/15 04:42:52;;;;;;;2.78;1.67;;;25.30;38.80;;;;;;5063924;28;20035;-59
2021/06/15 04:45:28;;;;;;;3.05;1.63;;;25.20;38.80;;;;;;5057577;28;20029;-59
2021/06/15 04:48:05;;;;;;;3.08;1.70;;;25.20;38.90;;;;;;5058905;28;20061;-60
2021/06/15 04:50:33;;;;;;;3.55;1.80;;;25.10;38.90;;;;;;5056180;28;20476;-61
2021/06/15 04:53:02;;;;;;;4.53;1.70;;;25.10;39.00;;;;;;5055510;28;20037;-61
2021/06/15 04:55:34;;;;;;;2.78;1.60;;;25.10;39.10;;;;;;5060027;28;20029;-60
2021/06/15 04:58:00;;;;;;;2.90;1.60;;;25.10;39.20;;;;;;5055712;28;20057;-61
2021/06/15 05:00:27;;;;;;;3.45;1.80;;;25.10;39.30;;;;;;5059444;28;20087;-59
2021/06/15 05:02:54;;;;;;;3.47;1.90;;;25.00;39.20;;;;;;5046329;28;20035;-59
2021/06/15 05:05:22;;;;;;;2.85;1.58;;;25.00;39.50;;;;;;5049230;28;20140;-62
2021/06/15 05:07:56;;;;;;;3.55;1.90;;;25.00;39.70;;;;;;5045173;28;20466;-61
2021/06/15 05:10:23;;;;;;;3.70;1.90;;;24.90;39.80;;;;;;5046462;28;20144;-61
2021/06/15 05:12:52;;;;;;;2.50;1.60;;;24.90;40.10;;;;;;5046686;28;20033;-60
2021/06/15 05:15:21;;;;;;;3.00;1.70;;;24.90;40.40;;;;;;5053911;28;20024;-61
2021/06/15 05:17:49;;;;;;;2.90;1.80;;;24.80;40.60;;;;;;5052102;28;20060;-60
2021/06/15 05:20:16;;;;;;;3.58;1.70;;;24.80;40.90;;;;;;5062762;28;20095;-59
2021/06/15 05:23:06;;;;;;;4.43;1.70;;;24.80;41.40;;;;;;5059191;28;20025;-60
2021/06/15 05:25:32;;;;;;;2.58;1.50;;;24.70;41.40;;;;;;5055098;28;20740;-60
2021/06/15 05:27:58;;;;;;;3.08;1.73;;;24.70;41.60;;;;;;5057290;28;20025;-61
2021/06/15 05:30:24;;;;;;;3.28;1.70;;;24.60;41.80;;;;;;5051273;28;20041;-59
2021/06/15 05:32:50;;;;;;;3.30;1.73;;;24.60;41.90;;;;;;5049540;28;20143;-61
2021/06/15 05:35:16;;;;;;;3.30;1.85;;;24.60;42.00;;;;;;5051104;28;20475;-61
2021/06/15 05:37:43;;;;;;;3.85;2.10;;;24.60;42.20;;;;;;5049546;28;20036;-59
2021/06/15 05:40:10;;;;;;;3.30;1.98;;;24.60;42.50;;;;;;5051872;28;20404;-60
2021/06/15 05:42:36;;;;;;;3.28;2.00;;;24.50;42.50;;;;;;5048052;28;20420;-62
2021/06/15 05:45:01;;;;;;;3.38;2.03;;;24.60;42.80;;;;;;5057519;28;20021;-61
2021/06/15 05:47:29;;;;;;;3.17;2.00;;;24.50;43.00;;;;;;5056286;28;20079;-61
2021/06/15 05:49:54;;;;;;;4.25;1.75;;;24.50;43.10;;;;;;5054873;28;20105;-61
2021/06/15 05:52:20;;;;;;;4.03;1.65;;;24.40;43.20;;;;;;5047745;28;20143;-61
2021/06/15 05:54:46;;;;;;;4.13;2.00;;;24.40;43.60;;;;;;5069788;28;20036;-60
2021/06/15 05:57:12;;;;;;;3.70;1.95;;;24.40;43.60;;;;;;5060993;28;20044;-61
2021/06/15 05:59:38;;;;;;;3.55;2.17;;;24.40;43.90;;;;;;5061298;28;20124;-61
2021/06/15 06:02:03;;;;;;;3.63;2.10;;;24.40;43.70;;;;;;5057481;28;20063;-62
2021/06/15 06:04:34;;;;;;;3.47;2.25;;;24.40;43.80;;;;;;5067487;28;20025;-62
2021/06/15 06:09:44;;;;;;;3.33;2.05;;;24.40;44.10;;;;;;5051492;28;20506;-60
2021/06/15 06:12:11;;;;;;;5.25;2.00;;;24.40;44.30;;;;;;5050713;28;20029;-60
2021/06/15 06:14:37;;;;;;;4.47;2.58;;;24.30;44.40;;;;;;5058090;28;20060;-61
2021/06/15 06:17:03;;;;;;;5.05;2.90;;;24.20;44.90;;;;;;5064233;28;20108;-63
2021/06/15 06:19:30;;;;;;;3.78;2.22;;;24.20;45.00;;;;;;5069393;28;20032;-62
2021/06/15 06:21:55;;;;;;;2.90;1.95;;;24.20;44.90;;;;;;5077012;28;20025;-62
2021/06/15 06:24:23;;;;;;;4.28;2.10;;;24.20;44.70;;;;;;5079175;28;20032;-62
2021/06/15 06:26:50;;;;;;;3.97;1.90;;;24.30;44.60;;;;;;5078788;28;20032;-61
2021/06/15 06:29:19;;;;;;;2.67;1.50;;;24.30;44.30;;;;;;5061240;28;20025;-61
2021/06/15 06:31:45;;;;;;;2.90;1.75;;;24.40;44.20;;;;;;5054670;28;20082;-61
2021/06/15 06:34:12;;;;;;;3.55;1.50;;;24.50;44.10;;;;;;5051223;28;20040;-59
2021/06/15 06:36:38;;;;;;;2.63;1.50;;;24.60;44.00;;;;;;5049863;28;20100;-59
2021/06/15 06:39:05;;;;;;;2.40;1.30;;;24.60;43.90;;;;;;5065225;28;20546;-60
2021/06/15 06:41:31;;;;;;;2.28;1.33;;;24.60;43.80;;;;;;5051522;28;20036;-60
2021/06/15 06:43:57;;;;;;;5.47;1.90;;;24.70;43.80;;;;;;5055952;28;20020;-60
2021/06/15 06:46:23;;;;;;;2.50;1.70;;;24.70;43.70;;;;;;5066920;28;20051;-60
2021/06/15 06:48:48;;;;;;;3.25;1.60;;;24.80;43.60;;;;;;5069436;28;20036;-59
2021/06/15 06:51:14;;;;;;;2.50;1.35;;;24.80;43.60;;;;;;5056417;28;20111;-61
2021/06/15 06:53:39;;;;;;;3.15;1.48;;;24.80;43.60;;;;;;5067338;28;20052;-60
2021/06/15 06:56:06;;;;;;;3.05;1.58;;;24.80;43.60;;;;;;5058469;28;20033;-59
2021/06/15 06:58:35;;;;;;;2.60;1.35;;;24.90;43.50;;;;;;5055785;28;20032;-59
2021/06/15 07:01:02;;;;;;;2.50;1.50;;;24.90;43.40;;;;;;5088396;28;20043;-59
2021/06/15 07:03:28;;;;;;;3.05;1.40;;;24.90;43.40;;;;;;5058854;28;20119;-60
2021/06/15 07:05:54;;;;;;;2.50;1.58;;;25.00;43.30;;;;;;5067654;28;20095;-59
2021/06/15 07:08:19;;;;;;;2.72;1.60;;;25.00;43.30;;;;;;5069260;28;20020;-59
2021/06/15 07:10:45;;;;;;;2.17;1.42;;;25.00;43.40;;;;;;5068413;28;20027;-60
2021/06/15 07:13:10;;;;;;;3.78;1.60;;;25.10;43.30;;;;;;5060554;28;20029;-60
2021/06/15 07:15:36;;;;;;;2.33;1.48;;;25.10;43.20;;;;;;5059555;28;20054;-59
2021/06/15 07:18:02;;;;;;;3.22;1.70;;;25.10;43.10;;;;;;5047583;28;20495;-60
2021/06/15 07:20:27;;;;;;;3.50;1.65;;;25.10;43.00;;;;;;5055366;28;20179;-60
2021/06/15 07:22:53;;;;;;;2.90;1.60;;;25.10;43.00;;;;;;5056612;28;20032;-59
2021/06/15 07:25:19;;;;;;;2.60;1.80;;;25.10;42.90;;;;;;5055020;28;20471;-60
2021/06/15 07:27:45;;;;;;;3.28;1.60;;;25.20;43.00;;;;;;5068232;28;20478;-60
2021/06/15 07:30:15;;;;;;;2.72;1.60;;;25.20;43.00;;;;;;5063864;28;20040;-59
2021/06/15 07:32:41;;;;;;;2.25;1.38;;;25.20;42.90;;;;;;5047348;28;20309;-59
2021/06/15 07:35:07;;;;;;;3.20;1.40;;;25.20;43.10;;;;;;5050012;28;20456;-60
2021/06/15 07:37:32;;;;;;;1.85;1.20;;;25.20;43.20;;;;;;5057041;28;20031;-59
2021/06/15 07:39:58;;;;;;;1.70;1.15;;;25.30;43.50;;;;;;5048579;28;20041;-60
2021/06/15 07:42:28;;;;;;;2.97;1.50;;;25.30;43.80;;;;;;5063625;28;20040;-59
2021/06/15 07:44:54;;;;;;;2.42;1.30;;;25.40;44.00;;;;;;5067140;28;20439;-60
2021/06/15 07:47:19;;;;;;;2.40;1.23;;;25.40;44.20;;;;;;5065298;28;20091;-59
2021/06/15 07:49:45;;;;;;;1.58;1.10;;;25.40;44.10;;;;;;5055069;28;20032;-60
2021/06/15 07:52:11;;;;;;;1.92;1.30;;;25.40;44.30;;;;;;5062803;28;20412;-60
2021/06/15 07:54:36;;;;;;;2.03;1.20;;;25.50;44.30;;;;;;5048843;28;20044;-60
2021/06/15 07:57:04;;;;;;;2.10;1.27;;;25.50;44.10;;;;;;5059197;28;20024;-60
2021/06/15 07:59:30;;;;;;;2.30;1.42;;;25.60;44.10;;;;;;5068281;28;20314;-62
2021/06/15 08:01:55;;;;;;;1.48;1.17;;;25.60;44.00;;;;;;5065535;28;20033;-60
2021/06/15 08:04:21;;;;;;;1.60;1.02;;;25.60;43.90;;;;;;5066936;28;20025;-60
2021/06/15 08:06:46;;;;;;;1.20;1.00;;;25.70;43.90;;;;;;5059240;28;20348;-60
2021/06/15 08:09:12;;;;;;;1.83;1.13;;;25.70;43.90;;;;;;5063581;28;20052;-59
2021/06/15 08:11:38;;;;;;;2.20;1.35;;;25.70;43.90;;;;;;5050901;28;20144;-59
2021/06/15 08:14:03;;;;;;;2.15;1.33;;;25.70;43.90;;;;;;5048929;28;20108;-60
2021/06/15 08:16:29;;;;;;;2.53;1.33;;;25.80;43.90;;;;;;5062355;28;20115;-59
2021/06/15 08:18:54;;;;;;;2.00;1.20;;;25.80;43.80;;;;;;5050575;28;20115;-61
2021/06/15 08:21:20;;;;;;;2.00;1.30;;;25.80;43.70;;;;;;5052500;28;20039;-61
2021/06/15 08:23:46;;;;;;;1.55;1.15;;;25.90;43.70;;;;;;5047531;28;20366;-60
2021/06/15 08:26:11;;;;;;;3.60;1.30;;;25.90;43.60;;;;;;5049662;28;20059;-59
2021/06/15 08:28:37;;;;;;;1.98;1.23;;;25.90;43.50;;;;;;5053216;28;20024;-61
2021/06/15 08:31:03;;;;;;;2.30;1.30;;;25.90;43.50;;;;;;5062714;28;20036;-61
2021/06/15 08:33:29;;;;;;;1.85;1.10;;;25.90;43.30;;;;;;5066549;28;20032;-61
2021/06/15 08:35:55;;;;;;;1.98;1.20;;;26.00;43.20;;;;;;5049037;28;20021;-60
2021/06/15 08:38:20;;;;;;;2.10;1.30;;;26.00;43.20;;;;;;5063444;28;20082;-60
2021/06/15 08:40:50;;;;;;;2.85;1.42;;;26.00;43.20;;;;;;5055269;28;20085;-61
2021/06/15 08:43:17;;;;;;;2.10;1.20;;;26.00;43.30;;;;;;5055860;28;20060;-60
2021/06/15 08:45:43;;;;;;;1.42;1.08;;;26.10;43.40;;;;;;5072513;28;20116;-58
2021/06/15 08:48:10;;;;;;;2.05;1.20;;;26.10;43.40;;;;;;5054522;28;20088;-60
2021/06/15 08:50:36;;;;;;;1.67;1.20;;;26.10;43.30;;;;;;5053288;28;20029;-60
2021/06/15 08:53:02;;;;;;;2.00;1.30;;;26.10;43.20;;;;;;5066311;28;20418;-59
2021/06/15 08:55:31;;;;;;;1.50;1.10;;;26.20;43.20;;;;;;5065621;28;20056;-60
2021/06/15 08:58:08;;;;;;;1.95;1.20;;;26.20;43.10;;;;;;5054010;28;20426;-59
2021/06/15 09:00:34;;;;;;;1.75;1.15;;;26.20;43.10;;;;;;5050523;28;20048;-59
2021/06/15 09:03:00;;;;;;;2.97;1.30;;;26.20;43.10;;;;;;5056147;28;20419;-62
2021/06/15 09:05:25;;;;;;;2.00;1.20;;;26.30;43.10;;;;;;5070225;28;20067;-61
2021/06/15 09:07:57;;;;;;;1.70;1.20;;;26.30;43.10;;;;;;5075555;28;20031;-60
2021/06/15 09:10:35;;;;;;;1.42;1.08;;;26.30;43.10;;;;;;5077285;28;20024;-60
2021/06/15 09:13:02;;;;;;;1.67;1.30;;;26.30;43.00;;;;;;5060605;28;20044;-60
2021/06/15 09:15:28;;;;;;;2.42;1.40;;;26.30;42.90;;;;;;5072186;28;20121;-60
2021/06/15 09:17:53;;;;;;;1.70;1.20;;;26.40;43.00;;;;;;5052620;28;20032;-59
2021/06/15 09:20:30;;;;;;;1.63;1.02;;;26.40;42.90;;;;;;5052834;28;20600;-61
2021/06/15 09:23:03;;;;;;;1.80;1.40;;;26.40;43.00;;;;;;5050232;28;20344;-60
2021/06/15 09:25:29;;;;;;;2.20;1.13;;;26.40;42.90;;;;;;5065353;28;20029;-61
2021/06/15 09:27:57;;;;;;;1.95;1.20;;;26.50;42.90;;;;;;5066150;28;20117;-59
2021/06/15 09:30:26;;;;;;;1.70;1.10;;;26.50;42.90;;;;;;5060974;28;20024;-59
2021/06/15 09:32:52;;;;;;;2.22;1.20;;;26.50;43.00;;;;;;5060072;28;20025;-60
2021/06/15 09:35:28;;;;;;;2.10;1.10;;;26.50;43.00;;;;;;5052289;28;20033;-59
2021/06/15 09:37:56;;;;;;;2.88;1.13;;;26.50;43.00;;;;;;5052693;28;20020;-58
2021/06/15 09:40:31;;;;;;;2.05;1.30;;;26.60;43.10;;;;;;5053322;28;20028;-59
2021/06/15 09:43:11;;;;;;;1.70;1.20;;;26.60;43.10;;;;;;5068653;28;20040;-58
2021/06/15 09:45:46;;;;;;;1.77;1.10;;;26.60;43.10;;;;;;5069510;28;20113;-58
2021/06/15 09:48:34;;;;;;;1.73;1.08;;;26.60;43.10;;;;;;5056838;28;20081;-58
2021/06/15 09:51:13;;;;;;;2.37;1.33;;;26.70;43.20;;;;;;5049289;28;20033;-61
2021/06/15 09:53:40;;;;;;;;;;;26.70;43.30;;;;;;5051096;28;20044;-60
2021/06/15 09:56:09;;;;;;;1.80;1.10;;;26.70;43.30;;;;;;5059154;28;19959;-58
2021/06/15 09:58:54;;;;;;;1.88;1.13;;;26.70;43.10;;;;;;5068155;28;20039;-60
2021/06/15 10:01:28;;;;;;;1.70;1.10;;;26.70;43.00;;;;;;5062574;28;20044;-60
2021/06/15 10:04:23;;;;;;;1.80;1.17;;;26.70;42.90;;;;;;5060193;28;20056;-60
2021/06/15 10:06:49;;;;;;;1.50;0.90;;;26.70;42.80;;;;;;5060026;28;20124;-59
2021/06/15 10:09:44;;;;;;;1.60;1.02;;;26.80;42.90;;;;;;5068171;28;20075;-59
2021/06/15 10:12:10;;;;;;;1.52;1.00;;;26.80;42.80;;;;;;5045184;28;20036;-61
2021/06/15 10:14:38;;;;;;;1.77;1.02;;;26.80;42.80;;;;;;5065720;28;20028;-60
2021/06/15 10:17:04;;;;;;;1.40;1.08;;;26.80;42.80;;;;;;5069239;28;20064;-60
2021/06/15 10:19:30;;;;;;;2.83;1.00;;;26.80;42.80;;;;;;5063887;28;20352;-60
2021/06/15 10:21:56;;;;;;;1.50;1.20;;;26.80;42.80;;;;;;5060331;28;20024;-60
2021/06/15 10:24:24;;;;;;;1.77;1.10;;;26.90;42.90;;;;;;5061937;28;20460;-59
2021/06/15 10:26:51;;;;;;;1.95;1.00;;;26.90;42.80;;;;;;5060826;28;20077;-58
2021/06/15 10:29:18;;;;;;;2.00;1.20;;;26.90;42.80;;;;;;5070079;28;20082;-59
2021/06/15 10:31:46;;;;;;;1.60;1.10;;;26.90;42.70;;;;;;5067716;28;20045;-60
2021/06/15 10:34:12;;;;;;;1.77;1.10;;;26.90;42.60;;;;;;5069412;28;20093;-59
2021/06/15 10:36:44;;;;;;;2.17;0.90;;;26.90;42.60;;;;;;5050499;28;20032;-59
2021/06/15 10:39:39;;;;;;;1.88;1.10;;;26.90;42.50;;;;;;5049517;28;20041;-60
2021/06/15 10:42:16;;;;;;;2.35;1.10;;;26.90;42.50;;;;;;5058803;28;20047;-60
2021/06/15 10:44:43;;;;;;;1.70;1.10;;;27.00;42.50;;;;;;5059960;28;20079;-59
2021/06/15 10:47:14;;;;;;;1.13;0.88;;;27.00;42.40;;;;;;5054959;28;20048;-60
2021/06/15 10:50:11;;;;;;;1.92;1.20;;;27.00;42.40;;;;;;5058939;28;20077;-59
2021/06/15 10:52:58;;;;;;;1.55;0.95;;;27.00;42.30;;;;;;5025243;28;20045;-58
2021/06/15 10:55:38;;;;;;;1.40;1.00;;;27.00;42.40;;;;;;5047293;28;20110;-58
2021/06/15 10:58:04;;;;;;;1.60;0.90;;;27.00;42.40;;;;;;5051405;28;20029;-60
2021/06/15 11:00:30;;;;;;;1.45;1.00;;;27.10;42.50;;;;;;5058126;28;20036;-59
2021/06/15 11:03:18;;;;;;;1.25;0.80;;;27.10;42.40;;;;;;5053123;28;20059;-59
2021/06/15 11:05:55;;;;;;;1.60;1.10;;;27.10;42.50;;;;;;5063398;28;20133;-59
2021/06/15 11:08:22;;;;;;;2.22;1.20;;;27.10;42.60;;;;;;5065418;28;20467;-59
2021/06/15 11:10:51;;;;;;;1.58;0.95;;;27.10;42.60;;;;;;5057703;28;20029;-60
2021/06/15 11:13:17;;;;;;;2.22;1.20;;;27.10;42.60;;;;;;5054764;28;20508;-59
2021/06/15 11:16:02;;;;;;;1.77;1.20;;;27.20;42.60;;;;;;5054492;28;20036;-58
2021/06/15 11:18:28;;;;;;;1.45;0.90;;;27.20;42.60;;;;;;5052601;28;20144;-60
2021/06/15 11:20:54;;;;;;;1.30;0.90;;;27.20;42.60;;;;;;5051123;28;20108;-59
2021/06/15 11:23:20;;;;;;;1.38;0.90;;;27.20;42.50;;;;;;5066060;28;20463;-60
2021/06/15 11:25:48;;;;;;;1.70;1.02;;;27.30;42.50;;;;;;5061021;28;20027;-61
2021/06/15 11:28:47;;;;;;;2.15;1.30;;;27.30;42.60;;;;;;5053016;28;20028;-61
2021/06/15 11:31:18;;;;;;;1.63;1.10;;;27.30;42.60;;;;;;5058836;28;20182;-62
2021/06/15 11:34:14;;;;;;;1.42;1.00;;;27.30;42.60;;;;;;5049963;28;20033;-63
2021/06/15 11:36:47;;;;;;;1.70;1.13;;;27.30;42.60;;;;;;5060513;28;20024;-60
2021/06/15 11:39:22;;;;;;;1.30;0.90;;;27.30;42.70;;;;;;5060674;28;20020;-61
2021/06/15 11:42:21;;;;;;;1.60;1.00;;;27.30;42.70;;;;;;5065580;28;20037;-61
2021/06/15 11:44:47;;;;;;;1.30;0.90;;;27.40;42.80;;;;;;5066052;28;20021;-59
2021/06/15 11:47:22;;;;;;;1.92;1.05;;;27.40;42.80;;;;;;5059421;28;20028;-59
2021/06/15 11:50:24;;;;;;;1.45;1.00;;;27.40;42.90;;;;;;5060789;28;20360;-60
2021/06/15 11:52:59;;;;;;;1.23;0.85;;;27.40;42.90;;;;;;5049170;28;20028;-60
2021/06/15 11:55:44;;;;;;;1.40;0.80;;;27.40;42.80;;;;;;5051243;28;20187;-62
2021/06/15 11:58:19;;;;;;;1.48;0.98;;;27.50;42.90;;;;;;5055422;28;20041;-61
2021/06/15 12:00:54;;;;;;;0.98;0.88;;;27.50;42.90;;;;;;5059113;28;20071;-60
2021/06/15 12:03:21;;;;;;;1.17;0.82;;;27.50;43.00;;;;;;5052074;28;20043;-61
2021/06/15 12:05:52;;;;;;;1.48;1.10;;;27.50;43.20;;;;;;5062934;28;20057;-60
2021/06/15 12:08:19;;;;;;;1.35;1.00;;;27.50;43.30;;;;;;5052221;28;20024;-59
2021/06/15 12:10:45;;;;;;;1.20;0.90;;;27.50;43.20;;;;;;5059082;28;20025;-60
2021/06/15 12:13:23;;;;;;;1.15;0.90;;;27.50;43.10;;;;;;5049706;28;20029;-61
2021/06/15 12:15:54;;;;;;;1.65;1.00;;;27.60;43.20;;;;;;5052218;28;20103;-61
2021/06/15 12:18:22;;;;;;;1.48;1.10;;;27.60;43.10;;;;;;5047399;28;20033;-60
2021/06/15 12:20:57;;;;;;;1.50;1.10;;;27.60;43.10;;;;;;5056096;28;20063;-60
2021/06/15 12:23:24;;;;;;;1.35;1.00;;;27.60;43.10;;;;;;5053333;28;20036;-60
2021/06/15 12:25:51;;;;;;;1.02;0.88;;;27.70;43.10;;;;;;5065890;28;20025;-60
2021/06/15 12:28:19;;;;;;;1.20;0.98;;;27.70;43.00;;;;;;5052476;28;20494;-60
2021/06/15 12:30:45;;;;;;;1.55;1.00;;;27.70;43.00;;;;;;5064366;28;20044;-60
2021/06/15 12:33:13;;;;;;;1.42;1.00;;;27.70;43.00;;;;;;5055464;28;20333;-59
2021/06/15 12:35:39;;;;;;;1.27;0.95;;;27.70;43.00;;;;;;5047632;28;20043;-61
2021/06/15 12:38:15;;;;;;;1.45;1.00;;;27.70;43.10;;;;;;5061529;28;20020;-61
2021/06/15 12:40:44;;;;;;;1.52;0.90;;;27.80;43.40;;;;;;5062739;28;20036;-58
2021/06/15 12:43:10;;;;;;;1.70;1.08;;;27.80;43.40;;;;;;5060084;28;20043;-61
2021/06/15 12:45:38;;;;;;;1.50;0.90;;;27.80;43.30;;;;;;5057030;28;20032;-61
2021/06/15 12:48:24;;;;;;;1.80;1.00;;;27.80;43.30;;;;;;5063380;28;20028;-59
2021/06/15 12:51:05;;;;;;;1.20;0.80;;;27.90;43.30;;;;;;5056128;28;20082;-61
2021/06/15 12:53:33;;;;;;;1.17;0.80;;;27.80;43.20;;;;;;5054529;28;20468;-62
2021/06/15 12:55:58;;;;;;;1.13;0.90;;;27.90;43.20;;;;;;5064698;28;20468;-61
2021/06/15 12:58:29;;;;;;;1.40;0.90;;;27.90;43.20;;;;;;5065490;28;20135;-60
2021/06/15 13:00:55;;;;;;;1.83;0.90;;;27.90;43.20;;;;;;5045417;28;20037;-59
2021/06/15 13:03:20;;;;;;;1.10;0.80;;;27.90;43.30;;;;;;5054197;28;20090;-60
2021/06/15 13:05:46;;;;;;;0.93;0.80;;;27.90;43.30;;;;;;5045508;28;20116;-59